Time;durP1;ratioP1;P1;durP2;ratioP2;P2;SDS_P1;SDS_P2;PMS_P1;PMS_P2;Temp;Humidity;BMP_temperature;BMP_pressure;BME280_temperature;BME280_humidity;BME280_pressure;Samples;Min_cycle;Max_cycle;Signal;HPM_P1;HPM_P2
2024/01/10 00:01:59;;;;;;;4.80;2.60;;;;;;;20.96;26.76;102581.84;103591;1281;61372;-77
2024/01/10 00:04:25;;;;;;;4.60;2.60;;;;;;;20.96;26.76;102581.83;103547;1281;61244;-78
2024/01/10 00:06:50;;;;;;;5.90;2.80;;;;;;;20.96;26.86;102584.89;103598;1280;61361;-78
2024/01/10 00:09:16;;;;;;;6.00;2.70;;;;;;;20.96;26.80;102586.84;103505;1282;61334;-78
2024/01/10 00:11:42;;;;;;;4.30;2.60;;;;;;;20.97;26.95;102588.25;103486;1282;61343;-78
2024/01/10 00:14:07;;;;;;;4.60;2.60;;;;;;;20.97;26.78;102591.66;103350;1281;60225;-78
2024/01/10 00:16:33;;;;;;;5.00;2.80;;;;;;;20.97;26.78;102585.39;103598;1282;62225;-78
2024/01/10 00:18:59;;;;;;;5.00;2.90;;;;;;;20.97;26.76;102589.83;103464;1281;61395;-77
2024/01/10 00:21:25;;;;;;;6.10;3.00;;;;;;;20.98;26.77;102594.66;103500;1282;60148;-78
2024/01/10 00:23:50;;;;;;;4.60;2.60;;;;;;;20.98;26.61;102599.13;103374;1282;61466;-78
2024/01/10 00:26:16;;;;;;;4.70;2.70;;;;;;;20.98;26.74;102601.09;103495;1281;72701;-78
2024/01/10 00:28:45;;;;;;;4.90;2.60;;;;;;;20.98;26.78;102604.67;103541;1281;75455;-78
2024/01/10 00:31:14;;;;;;;3.70;2.50;;;;;;;20.98;26.89;102603.92;103492;1281;61376;-78
2024/01/10 00:33:40;;;;;;;5.50;2.70;;;;;;;20.98;26.78;102603.23;103527;1281;62643;-77
2024/01/10 00:36:06;;;;;;;4.70;2.60;;;;;;;20.98;26.90;102602.89;103527;1284;60081;-78
2024/01/10 00:38:32;;;;;;;4.20;2.70;;;;;;;20.98;26.76;102600.00;103470;1281;61283;-78
2024/01/10 00:40:58;;;;;;;4.40;2.60;;;;;;;20.99;26.84;102599.09;103370;1282;61385;-78
2024/01/10 00:43:24;;;;;;;5.10;3.00;;;;;;;20.99;26.66;102599.09;103499;1282;60030;-78
2024/01/10 00:45:50;;;;;;;5.30;2.80;;;;;;;20.99;26.77;102599.28;103539;1280;61384;-78
2024/01/10 00:48:17;;;;;;;4.50;2.70;;;;;;;20.99;26.61;102601.05;103727;1281;61471;-78
2024/01/10 00:50:52;;;;;;;5.30;2.70;;;;;;;20.99;26.78;102601.23;103305;1282;73651;-78
2024/01/10 00:53:18;;;;;;;6.80;2.90;;;;;;;20.99;26.84;102601.57;103515;1281;62297;-78
2024/01/10 00:55:43;;;;;;;5.60;2.90;;;;;;;21.00;26.71;102597.27;103736;1284;61371;-78
2024/01/10 00:58:09;;;;;;;4.70;3.00;;;;;;;20.99;26.79;102598.53;103577;1281;61530;-78
2024/01/10 01:00:34;;;;;;;4.30;2.90;;;;;;;21.00;26.83;102597.08;103537;1280;62142;-79
2024/01/10 01:03:00;;;;;;;4.70;2.70;;;;;;;21.00;26.74;102593.66;103592;1281;61170;-78
2024/01/10 01:05:26;;;;;;;4.80;3.20;;;;;;;21.00;26.77;102591.52;103437;1281;61388;-78
2024/01/10 01:07:51;;;;;;;4.80;3.10;;;;;;;20.99;26.74;102591.89;103430;1281;62281;-78
2024/01/10 01:10:19;;;;;;;7.00;3.10;;;;;;;21.00;26.71;102592.96;103499;1281;63032;-78
2024/01/10 01:12:44;;;;;;;5.30;3.00;;;;;;;21.00;26.68;102589.89;103414;1282;60150;-78
2024/01/10 01:15:10;;;;;;;4.70;3.10;;;;;;;21.01;26.91;102582.55;103805;1282;61385;-78
2024/01/10 01:17:35;;;;;;;5.80;3.20;;;;;;;21.01;26.80;102582.53;103611;1281;62262;-78
2024/01/10 01:20:04;;;;;;;5.80;3.10;;;;;;;21.01;26.85;102578.06;103530;1281;60080;-78
2024/01/10 01:22:31;;;;;;;4.90;3.00;;;;;;;21.01;26.82;102568.20;103418;1281;73440;-78
2024/01/10 01:24:58;;;;;;;4.50;2.80;;;;;;;21.01;26.75;102568.91;103648;1281;75318;-78
2024/01/10 01:27:24;;;;;;;4.60;3.10;;;;;;;21.01;26.72;102566.95;103624;1281;61467;-78
2024/01/10 01:29:49;;;;;;;5.50;3.10;;;;;;;21.01;26.83;102566.95;103527;1282;61241;-78
2024/01/10 01:32:15;;;;;;;4.90;3.20;;;;;;;21.01;26.82;102568.73;103531;1281;62307;-78
2024/01/10 01:34:41;;;;;;;4.90;3.00;;;;;;;21.01;26.90;102564.44;103571;1280;61266;-78
2024/01/10 01:37:06;;;;;;;5.10;2.70;;;;;;;21.01;26.81;102558.88;103319;1280;74450;-78
2024/01/10 01:39:32;;;;;;;4.80;3.00;;;;;;;21.02;26.85;102555.83;103553;1280;61401;-78
2024/01/10 01:41:58;;;;;;;5.20;3.20;;;;;;;21.01;26.81;102549.73;103525;1282;61310;-78
2024/01/10 01:44:23;;;;;;;4.90;3.10;;;;;;;21.02;26.75;102546.16;103488;1281;59534;-78
2024/01/10 01:46:49;;;;;;;5.80;3.40;;;;;;;21.02;26.74;102540.79;103540;1281;61546;-78
2024/01/10 01:49:15;;;;;;;5.00;3.20;;;;;;;21.02;26.72;102539.88;103440;1281;61379;-78
2024/01/10 01:51:43;;;;;;;6.40;3.30;;;;;;;21.02;26.78;102537.02;103602;1282;61372;-78
2024/01/10 01:54:09;;;;;;;5.30;3.30;;;;;;;21.02;26.77;102536.11;103512;1281;61328;-78
2024/01/10 01:56:38;;;;;;;6.20;3.50;;;;;;;21.03;26.87;102533.05;103487;1281;60151;-78
2024/01/10 01:59:06;;;;;;;5.00;3.40;;;;;;;21.02;26.96;102535.75;103511;1282;74433;-78
2024/01/10 02:01:32;;;;;;;6.40;3.20;;;;;;;21.02;26.86;102533.79;103657;1281;62192;-78
2024/01/10 02:04:00;;;;;;;5.00;3.10;;;;;;;21.02;26.78;102535.77;103574;1280;61426;-78
2024/01/10 02:06:26;;;;;;;5.60;3.30;;;;;;;21.02;26.75;102529.69;103584;1281;72405;-78
2024/01/10 02:08:52;;;;;;;5.80;3.50;;;;;;;21.02;26.73;102531.64;103307;1282;61360;-78
2024/01/10 02:11:17;;;;;;;5.10;3.30;;;;;;;21.02;26.81;102531.63;103584;1281;61353;-78
2024/01/10 02:13:43;;;;;;;5.60;3.40;;;;;;;21.02;26.89;102526.63;103390;1286;59931;-78
2024/01/10 02:16:09;;;;;;;4.90;3.30;;;;;;;21.02;26.93;102521.08;103337;1282;61311;-78
2024/01/10 02:18:34;;;;;;;7.00;3.90;;;;;;;21.03;26.87;102518.20;103674;1281;62328;-78
2024/01/10 02:21:01;;;;;;;5.70;3.50;;;;;;;21.02;26.77;102513.73;103568;1281;75121;-78
2024/01/10 02:23:26;;;;;;;5.70;3.50;;;;;;;21.03;26.79;102514.95;103577;1282;61332;-78
2024/01/10 02:25:52;;;;;;;5.60;3.60;;;;;;;21.03;26.92;102508.68;103563;1280;61270;-78
2024/01/10 02:28:18;;;;;;;5.90;3.60;;;;;;;21.02;26.85;102509.06;103337;1282;61402;-78
2024/01/10 02:30:43;;;;;;;9.30;4.00;;;;;;;21.03;26.82;102507.27;103521;1280;61385;-78
2024/01/10 02:33:09;;;;;;;4.80;3.20;;;;;;;21.03;26.81;102506.20;103602;1281;61353;-78
2024/01/10 02:35:35;;;;;;;6.10;3.60;;;;;;;21.03;26.84;102500.26;103561;1281;61347;-78
2024/01/10 02:38:02;;;;;;;6.10;3.50;;;;;;;21.03;26.81;102500.09;103734;1281;60174;-78
2024/01/10 02:40:28;;;;;;;5.90;3.60;;;;;;;21.03;26.88;102499.02;103550;1281;72457;-78
2024/01/10 02:42:53;;;;;;;5.40;3.80;;;;;;;21.04;26.90;102497.73;103505;1281;62180;-78
2024/01/10 02:45:19;;;;;;;5.80;3.50;;;;;;;21.03;26.67;102495.96;103580;1282;61375;-75
2024/01/10 02:47:45;;;;;;;6.20;3.50;;;;;;;21.04;26.95;102496.30;103438;1281;61372;-77
2024/01/10 02:50:11;;;;;;;5.00;3.40;;;;;;;21.03;26.95;102498.11;103225;1282;61242;-77
2024/01/10 02:52:36;;;;;;;6.00;3.60;;;;;;;21.04;27.01;102498.09;103619;1282;61358;-77
2024/01/10 02:55:02;;;;;;;5.00;3.40;;;;;;;21.04;26.81;102501.48;103470;1282;74420;-77
2024/01/10 02:57:28;;;;;;;5.30;3.50;;;;;;;21.04;26.77;102501.28;103509;1280;62220;-77
2024/01/10 02:59:53;;;;;;;6.30;4.00;;;;;;;21.04;26.65;102501.65;103499;1281;60001;-77
2024/01/10 03:02:19;;;;;;;6.80;3.70;;;;;;;21.03;26.77;102500.95;103557;1281;62162;-77
2024/01/10 03:04:45;;;;;;;6.00;3.60;;;;;;;21.04;26.87;102501.13;103724;1280;61343;-76
2024/01/10 03:07:10;;;;;;;7.40;3.80;;;;;;;21.04;26.87;102504.17;103566;1281;61374;-77
2024/01/10 03:09:36;;;;;;;6.50;4.20;;;;;;;21.04;26.89;102504.88;103452;1281;61254;-76
2024/01/10 03:12:02;;;;;;;5.60;3.50;;;;;;;21.04;26.77;102504.16;103420;1282;61339;-76
2024/01/10 03:14:27;;;;;;;8.00;4.10;;;;;;;21.04;26.80;102502.38;103480;1282;62056;-77
2024/01/10 03:16:53;;;;;;;7.70;4.00;;;;;;;21.04;26.88;102500.57;103401;1282;61226;-77
2024/01/10 03:19:19;;;;;;;8.10;3.80;;;;;;;21.05;26.87;102497.86;103428;1281;62319;-76
2024/01/10 03:21:44;;;;;;;5.40;3.70;;;;;;;21.05;26.69;102498.76;103325;1282;61245;-77
2024/01/10 03:24:10;;;;;;;5.50;4.00;;;;;;;21.04;26.84;102494.85;103390;1282;62022;-77
2024/01/10 03:26:35;;;;;;;5.80;3.90;;;;;;;21.05;26.82;102488.56;103438;1285;60141;-77
2024/01/10 03:29:01;;;;;;;6.10;3.80;;;;;;;21.04;26.76;102486.95;103500;1280;61314;-77
2024/01/10 03:31:28;;;;;;;5.60;3.80;;;;;;;21.05;26.80;102484.27;103656;1281;61155;-77
2024/01/10 03:33:55;;;;;;;8.50;4.20;;;;;;;21.05;26.75;102487.49;103560;1281;62222;-77
2024/01/10 03:36:21;;;;;;;7.60;4.10;;;;;;;21.05;26.82;102485.50;103543;1281;59973;-77
2024/01/10 03:38:47;;;;;;;7.70;4.60;;;;;;;21.05;26.85;102486.05;103511;1281;61471;-77
2024/01/10 03:41:17;;;;;;;6.10;4.30;;;;;;;21.05;26.88;102485.50;103600;1280;61270;-77
2024/01/10 03:43:42;;;;;;;6.50;4.40;;;;;;;21.05;26.82;102483.89;103395;1281;61191;-77
2024/01/10 03:46:09;;;;;;;7.40;4.50;;;;;;;21.06;26.85;102482.07;103503;1282;61413;-77
2024/01/10 03:48:35;;;;;;;5.70;4.40;;;;;;;21.06;26.84;102476.89;103603;1281;61231;-77
2024/01/10 03:51:00;;;;;;;5.90;4.10;;;;;;;21.06;26.89;102477.42;103198;1280;61376;-77
2024/01/10 03:53:26;;;;;;;7.00;4.70;;;;;;;21.06;26.87;102479.19;103429;1280;61494;-77
2024/01/10 03:55:52;;;;;;;6.80;4.80;;;;;;;21.06;26.86;102481.34;103575;1281;59844;-76
2024/01/10 03:58:18;;;;;;;8.60;4.70;;;;;;;21.06;26.82;102481.52;103658;1281;61268;-77
2024/01/10 04:00:44;;;;;;;6.30;4.60;;;;;;;21.06;26.85;102480.42;103533;1280;61418;-77
2024/01/10 04:03:10;;;;;;;6.30;4.50;;;;;;;21.07;26.86;102477.73;103523;1281;61373;-76
2024/01/10 04:05:36;;;;;;;6.90;4.60;;;;;;;21.06;26.84;102474.55;103497;1282;61625;-76
2024/01/10 04:08:02;;;;;;;7.60;4.90;;;;;;;21.06;26.86;102474.16;103386;1282;61506;-76
2024/01/10 04:10:28;;;;;;;7.60;4.90;;;;;;;21.06;26.84;102476.84;103452;1282;59950;-77
2024/01/10 04:12:53;;;;;;;6.50;4.30;;;;;;;21.07;26.75;102476.45;103430;1281;61434;-77
2024/01/10 04:15:19;;;;;;;7.30;4.80;;;;;;;21.07;26.86;102480.75;103619;1280;62243;-77
2024/01/10 04:17:45;;;;;;;6.60;4.50;;;;;;;21.07;26.83;102478.08;103870;1280;61326;-76
2024/01/10 04:20:10;;;;;;;6.20;4.70;;;;;;;21.07;26.83;102474.48;103453;1282;72988;-77
2024/01/10 04:22:36;;;;;;;7.20;4.90;;;;;;;21.07;26.83;102476.98;103495;1284;61253;-76
2024/01/10 04:25:05;;;;;;;8.20;5.20;;;;;;;21.07;26.76;102475.02;103542;1282;61386;-77
2024/01/10 04:27:30;;;;;;;7.50;5.20;;;;;;;21.07;26.76;102477.89;103437;1282;61240;-76
2024/01/10 04:29:56;;;;;;;7.70;5.50;;;;;;;21.06;26.53;102479.16;103502;1281;61375;-76
2024/01/10 04:32:21;;;;;;;10.30;6.00;;;;;;;21.06;26.52;102480.08;103517;1282;61366;-76
2024/01/10 04:34:47;;;;;;;8.80;6.00;;;;;;;21.05;26.34;102483.52;103546;1280;61388;-76
2024/01/10 04:37:14;;;;;;;10.50;6.80;;;;;;;21.05;26.18;102481.95;103495;1282;61490;-77
2024/01/10 04:39:40;;;;;;;9.70;6.70;;;;;;;21.03;25.88;102479.67;103225;1282;61358;-77
2024/01/10 04:42:06;;;;;;;9.20;6.30;;;;;;;21.03;25.81;102481.84;103617;1280;61379;-77
2024/01/10 04:44:32;;;;;;;9.00;6.70;;;;;;;21.01;25.63;102478.86;103563;1281;61358;-77
2024/01/10 04:46:57;;;;;;;10.70;6.70;;;;;;;21.00;25.45;102482.67;103539;1282;61372;-77
2024/01/10 04:49:23;;;;;;;10.60;7.40;;;;;;;20.99;25.22;102483.24;103403;1281;61404;-79
2024/01/10 04:51:50;;;;;;;7.60;6.10;;;;;;;20.98;25.28;102482.23;103623;1280;62158;-79
2024/01/10 04:54:15;;;;;;;10.50;6.80;;;;;;;20.96;25.23;102482.88;103392;1282;61448;-78
2024/01/10 04:56:41;;;;;;;9.00;6.70;;;;;;;20.93;25.24;102482.62;103505;1282;61364;-79
2024/01/10 04:59:07;;;;;;;9.00;6.60;;;;;;;20.90;25.33;102483.47;103682;1281;61379;-79
2024/01/10 05:01:32;;;;;;;9.80;7.00;;;;;;;20.85;25.30;102479.04;103462;1281;61395;-78
2024/01/10 05:03:58;;;;;;;10.60;7.10;;;;;;;20.82;25.19;102477.02;103456;1281;61366;-78
2024/01/10 05:06:24;;;;;;;11.30;7.10;;;;;;;20.78;25.05;102479.73;103372;1282;61307;-79
2024/01/10 05:08:49;;;;;;;10.70;7.50;;;;;;;20.73;25.17;102484.03;103637;1282;61276;-79
2024/01/10 05:11:15;;;;;;;11.20;8.00;;;;;;;20.70;25.14;102485.05;103488;1280;61382;-78
2024/01/10 05:13:42;;;;;;;12.20;8.60;;;;;;;20.66;25.09;102483.26;103497;1282;61245;-76
2024/01/10 05:16:08;;;;;;;12.60;8.70;;;;;;;20.62;24.94;102484.30;103456;1280;61344;-77
2024/01/10 05:18:33;;;;;;;12.30;8.30;;;;;;;20.58;24.80;102484.62;103495;1282;61241;-77
2024/01/10 05:20:59;;;;;;;11.80;8.30;;;;;;;20.55;24.84;102486.39;103685;1281;61414;-77
2024/01/10 05:23:25;;;;;;;12.70;8.40;;;;;;;20.52;24.63;102487.06;103417;1280;61355;-77
2024/01/10 05:25:50;;;;;;;10.90;8.70;;;;;;;20.48;24.61;102485.79;103536;1281;61251;-78
2024/01/10 05:28:16;;;;;;;10.90;8.40;;;;;;;20.46;24.60;102484.10;103381;1282;73598;-78
2024/01/10 05:30:44;;;;;;;13.90;9.40;;;;;;;20.42;24.40;102480.14;103848;1282;61246;-77
2024/01/10 05:33:10;;;;;;;13.40;9.80;;;;;;;20.41;24.49;102480.88;103504;1280;61487;-77
2024/01/10 05:35:38;;;;;;;12.70;9.20;;;;;;;20.40;24.38;102480.91;103472;1281;61277;-77
2024/01/10 05:38:04;;;;;;;13.80;9.30;;;;;;;20.41;24.29;102479.81;103536;1282;72522;-78
2024/01/10 05:40:32;;;;;;;14.90;9.30;;;;;;;20.41;24.41;102481.95;103486;1284;61277;-79
2024/01/10 05:43:01;;;;;;;15.80;9.60;;;;;;;20.40;24.33;102487.73;103601;1284;61356;-78
2024/01/10 05:45:28;;;;;;;14.60;9.80;;;;;;;20.37;24.10;102488.02;104617;1281;60910;-80
2024/01/10 05:47:53;;;;;;;12.20;8.70;;;;;;;20.35;24.07;102490.44;104588;1281;61362;-79
2024/01/10 05:50:19;;;;;;;14.10;9.40;;;;;;;20.32;24.22;102487.89;104471;1282;59141;-78
2024/01/10 05:52:45;;;;;;;13.90;8.50;;;;;;;20.29;24.15;102489.42;104268;1282;62076;-78
2024/01/10 05:55:11;;;;;;;13.70;8.50;;;;;;;20.27;24.33;102492.38;105354;1280;59365;-79
2024/01/10 05:57:37;;;;;;;14.50;10.20;;;;;;;20.26;24.39;102489.73;105345;1286;59479;-79
2024/01/10 06:00:04;;;;;;;14.70;10.00;;;;;;;20.24;24.52;102491.05;105392;1282;61352;-78
2024/01/10 06:02:29;;;;;;;17.80;10.60;;;;;;;20.21;24.50;102494.21;105083;1282;73429;-79
2024/01/10 06:04:55;;;;;;;19.10;11.70;;;;;;;20.19;24.44;102496.64;105304;1281;61393;-80
2024/01/10 06:07:21;;;;;;;15.60;11.30;;;;;;;20.16;24.62;102498.00;105053;1281;59637;-78
2024/01/10 06:09:47;;;;;;;16.70;10.90;;;;;;;20.14;24.43;102497.73;105150;1282;61478;-78
2024/01/10 06:12:13;;;;;;;17.00;11.20;;;;;;;20.10;24.48;102498.59;105450;1280;62096;-78
2024/01/10 06:14:39;;;;;;;16.90;10.50;;;;;;;20.09;24.44;102501.85;105464;1282;62219;-79
2024/01/10 06:17:05;;;;;;;15.50;10.50;;;;;;;20.10;24.62;102502.70;105622;1281;61417;-80
2024/01/10 06:19:31;;;;;;;16.20;11.40;;;;;;;20.12;24.59;102508.90;105180;1280;61260;-81
2024/01/10 06:21:57;;;;;;;18.50;11.30;;;;;;;20.13;24.51;102509.95;105471;1281;59338;-80
2024/01/10 06:24:23;;;;;;;17.80;11.10;;;;;;;20.12;24.65;102514.24;105738;1282;59635;-79
2024/01/10 06:26:51;;;;;;;20.20;11.60;;;;;;;20.12;24.74;102518.36;105885;1281;59950;-80
2024/01/10 06:29:18;;;;;;;22.30;12.10;;;;;;;20.13;24.61;102517.80;105671;1282;61040;-79
2024/01/10 06:31:43;;;;;;;26.00;12.10;;;;;;;20.11;24.69;102517.85;106195;1282;72465;-78
2024/01/10 06:34:09;;;;;;;19.70;11.90;;;;;;;20.10;24.78;102516.48;105960;1282;59795;-78
2024/01/10 06:36:35;;;;;;;25.20;12.80;;;;;;;20.09;24.97;102517.59;106002;1282;59069;-78
2024/01/10 06:39:01;;;;;;;21.30;11.10;;;;;;;20.09;24.98;102514.55;105857;1280;61294;-77
2024/01/10 06:41:27;;;;;;;21.70;10.80;;;;;;;20.10;25.34;102518.61;105514;1281;60025;-78
2024/01/10 06:43:53;;;;;;;15.70;10.70;;;;;;;20.11;25.38;102520.55;106136;1282;60575;-80
2024/01/10 06:46:19;;;;;;;19.30;11.70;;;;;;;20.12;25.73;102521.03;106153;1281;61219;-79
2024/01/10 06:48:45;;;;;;;21.80;10.60;;;;;;;20.12;25.67;102521.38;105628;1284;61343;-78
2024/01/10 06:51:12;;;;;;;19.20;10.50;;;;;;;20.14;25.70;102520.98;105710;1281;60000;-79
2024/01/10 06:53:39;;;;;;;15.00;10.50;;;;;;;20.15;25.73;102519.71;106105;1282;72499;-79
2024/01/10 06:56:05;;;;;;;20.80;10.40;;;;;;;20.15;26.02;102516.26;105808;1281;61159;-81
2024/01/10 06:58:31;;;;;;;23.60;10.50;;;;;;;20.16;26.27;102519.27;105792;1280;61280;-80
2024/01/10 07:00:57;;;;;;;21.60;9.40;;;;;;;20.17;26.63;102519.75;105678;1280;59577;-81
2024/01/10 07:03:22;;;;;;;13.60;9.60;;;;;;;20.18;26.68;102518.80;106182;1282;59451;-80
2024/01/10 07:05:48;;;;;;;20.20;9.90;;;;;;;20.19;26.80;102520.05;106196;1282;59948;-80
2024/01/10 07:08:14;;;;;;;16.40;9.50;;;;;;;20.19;26.81;102519.88;106183;1280;59460;-79
2024/01/10 07:10:40;;;;;;;15.70;9.90;;;;;;;20.20;26.88;102516.27;106242;1285;62519;-81
2024/01/10 07:13:06;;;;;;;17.60;10.00;;;;;;;20.21;26.77;102518.54;106010;1281;59658;-80
2024/01/10 07:15:32;;;;;;;16.70;10.00;;;;;;;20.23;26.85;102519.70;106204;1282;61365;-80
2024/01/10 07:17:57;;;;;;;16.20;9.90;;;;;;;20.24;26.95;102518.93;106228;1282;59673;-80
2024/01/10 07:20:24;;;;;;;16.00;10.80;;;;;;;20.26;26.72;102517.45;106157;1282;59817;-79
2024/01/10 07:22:51;;;;;;;16.90;11.00;;;;;;;20.29;26.81;102514.13;106049;1284;61225;-79
2024/01/10 07:25:17;;;;;;;26.80;10.90;;;;;;;20.32;26.83;102516.83;106104;1281;61024;-79
2024/01/10 07:27:44;;;;;;;18.30;9.90;;;;;;;20.36;26.97;102520.42;105963;1280;60812;-79
2024/01/10 07:30:15;;;;;;;17.00;10.10;;;;;;;20.40;27.13;102518.14;105748;1283;59827;-79
2024/01/10 07:32:44;;;;;;;15.80;9.40;;;;;;;20.44;27.06;102518.51;105919;1282;61168;-79
2024/01/10 07:35:10;;;;;;;17.70;9.30;;;;;;;20.48;27.33;102520.33;105649;1282;72550;-79
2024/01/10 07:37:40;;;;;;;16.30;9.10;;;;;;;20.51;27.43;102522.67;105418;1280;584010;-79
2024/01/10 07:40:07;;;;;;;20.60;9.50;;;;;;;20.54;27.51;102522.92;105762;1282;62423;-80
2024/01/10 07:42:33;;;;;;;16.30;9.10;;;;;;;20.57;27.67;102523.66;106179;1280;61151;-79
2024/01/10 07:44:59;;;;;;;18.30;9.70;;;;;;;20.60;27.80;102526.96;106139;1282;72414;-79
2024/01/10 07:47:26;;;;;;;14.80;9.10;;;;;;;20.61;28.01;102529.24;106934;1282;73191;-80
2024/01/10 07:49:51;;;;;;;17.60;9.30;;;;;;;20.63;28.15;102522.89;106786;1281;59435;-81
2024/01/10 07:52:17;;;;;;;20.20;9.50;;;;;;;20.65;28.17;102519.23;106809;1282;59991;-81
2024/01/10 07:54:42;;;;;;;18.30;9.20;;;;;;;20.67;28.25;102520.25;106689;1281;60438;-78
2024/01/10 07:57:08;;;;;;;20.70;9.10;;;;;;;20.66;28.48;102523.13;106704;1281;58980;-80
2024/01/10 07:59:34;;;;;;;20.30;8.70;;;;;;;20.67;28.75;102523.45;106730;1284;60100;-80
2024/01/10 08:02:00;;;;;;;22.40;8.80;;;;;;;20.68;29.07;102524.13;106892;1280;60154;-80
2024/01/10 08:04:26;;;;;;;28.80;10.00;;;;;;;20.69;29.35;102524.64;106810;1282;59018;-79
2024/01/10 08:06:53;;;;;;;16.00;8.30;;;;;;;20.70;29.36;102526.38;106877;1280;71268;-79
2024/01/10 08:09:19;;;;;;;20.40;9.20;;;;;;;20.71;29.45;102527.23;107047;1280;60400;-81
2024/01/10 08:11:45;;;;;;;17.20;9.10;;;;;;;20.72;29.51;102528.80;106893;1282;59188;-79
2024/01/10 08:14:12;;;;;;;17.70;8.80;;;;;;;20.75;29.52;102533.15;106181;1280;59572;-80
2024/01/10 08:16:38;;;;;;;18.60;8.80;;;;;;;20.76;29.58;102532.92;106137;1285;59574;-79
2024/01/10 08:19:04;;;;;;;27.10;8.80;;;;;;;20.78;29.61;102526.94;105769;1282;60764;-80
2024/01/10 08:21:30;;;;;;;22.90;9.30;;;;;;;20.80;29.54;102525.78;105556;1282;59839;-78
2024/01/10 08:23:56;;;;;;;25.30;9.70;;;;;;;20.83;29.66;102525.48;105744;1281;59349;-80
2024/01/10 08:26:21;;;;;;;19.50;8.50;;;;;;;20.86;29.76;102526.08;105371;1280;59538;-78
2024/01/10 08:28:47;;;;;;;22.10;8.20;;;;;;;20.87;29.79;102523.48;105723;1284;59279;-79
2024/01/10 08:31:16;;;;;;;25.40;8.40;;;;;;;20.91;30.00;102525.67;105663;1282;61879;-79
2024/01/10 08:33:42;;;;;;;16.00;8.60;;;;;;;20.93;30.00;102527.91;105958;1282;59519;-78
2024/01/10 08:36:09;;;;;;;16.70;8.20;;;;;;;20.94;30.23;102529.99;105895;1282;59848;-78
2024/01/10 08:38:35;;;;;;;18.20;8.00;;;;;;;20.96;30.30;102532.05;105693;1285;61476;-79
2024/01/10 08:41:01;;;;;;;18.90;8.20;;;;;;;20.98;30.29;102530.57;105715;1285;61706;-79
2024/01/10 08:43:27;;;;;;;23.70;8.80;;;;;;;20.99;30.45;102532.67;105861;1282;62425;-80
2024/01/10 08:45:53;;;;;;;17.90;8.40;;;;;;;21.01;30.43;102533.48;105389;1282;59955;-79
2024/01/10 08:48:18;;;;;;;12.80;7.60;;;;;;;21.02;30.50;102535.20;105556;1285;61408;-79
2024/01/10 08:50:45;;;;;;;20.70;8.50;;;;;;;21.03;30.52;102534.83;105822;1282;61274;-80
2024/01/10 08:53:11;;;;;;;17.00;7.60;;;;;;;21.03;30.63;102539.27;105786;1287;59953;-81
2024/01/10 08:55:39;;;;;;;29.00;8.70;;;;;;;21.04;30.68;102539.09;105724;1284;59409;-79
2024/01/10 08:58:05;;;;;;;29.40;8.90;;;;;;;21.03;30.75;102537.16;106079;1284;60929;-78
2024/01/10 09:00:31;;;;;;;27.50;9.00;;;;;;;21.02;30.73;102541.86;105821;1281;60646;-79
2024/01/10 09:02:57;;;;;;;32.80;9.30;;;;;;;21.00;30.84;102539.23;104781;1289;59973;-80
2024/01/10 09:05:23;;;;;;;22.00;8.30;;;;;;;20.99;31.01;102538.55;105715;1282;59151;-79
2024/01/10 09:07:49;;;;;;;30.10;8.70;;;;;;;20.98;31.08;102533.77;105838;1283;61377;-78
2024/01/10 09:10:15;;;;;;;19.40;8.10;;;;;;;20.99;31.30;102532.51;106052;1287;59504;-77
2024/01/10 09:12:45;;;;;;;25.50;8.50;;;;;;;21.00;31.22;102529.78;105573;1281;60153;-77
2024/01/10 09:15:13;;;;;;;25.70;8.30;;;;;;;21.02;31.38;102529.69;106565;1282;74174;-79
2024/01/10 09:17:40;;;;;;;26.00;7.90;;;;;;;21.02;31.41;102525.75;106723;1281;59981;-78
2024/01/10 09:20:06;;;;;;;19.40;8.50;;;;;;;21.03;31.36;102523.02;105347;1282;59526;-79
2024/01/10 09:22:32;;;;;;;20.50;8.10;;;;;;;21.04;31.44;102519.56;105620;1280;59496;-79
2024/01/10 09:25:03;;;;;;;17.10;7.60;;;;;;;21.05;31.51;102517.02;105386;1283;59907;-79
2024/01/10 09:27:33;;;;;;;22.20;8.20;;;;;;;21.06;31.43;102515.90;106780;1282;60075;-78
2024/01/10 09:30:01;;;;;;;24.70;7.60;;;;;;;21.07;31.48;102512.08;106873;1282;61232;-79
2024/01/10 09:32:28;;;;;;;20.30;8.40;;;;;;;21.08;31.44;102510.60;106530;1284;73308;-81
2024/01/10 09:34:54;;;;;;;19.50;7.80;;;;;;;21.10;31.58;102508.73;105701;1281;75646;-79
2024/01/10 09:37:20;;;;;;;18.10;8.00;;;;;;;21.10;31.83;102505.69;105572;1285;59979;-80
2024/01/10 09:39:46;;;;;;;23.40;7.70;;;;;;;21.12;31.97;102505.95;105829;1284;59804;-80
2024/01/10 09:42:11;;;;;;;16.90;7.60;;;;;;;21.12;31.98;102500.75;105973;1282;60302;-80
2024/01/10 09:44:37;;;;;;;19.80;7.60;;;;;;;21.13;32.15;102499.48;105793;1282;61488;-78
2024/01/10 09:47:03;;;;;;;25.10;7.80;;;;;;;21.14;32.16;102493.71;106188;1285;61898;-79
2024/01/10 09:49:29;;;;;;;29.10;7.90;;;;;;;21.14;32.16;102488.70;106172;1282;60182;-78
2024/01/10 09:51:59;;;;;;;18.40;8.30;;;;;;;21.14;31.96;102493.88;106053;1282;60178;-84
2024/01/10 09:54:26;;;;;;;37.60;9.60;;;;;;;21.08;31.59;102488.42;105868;1287;71584;-80
2024/01/10 09:56:53;;;;;;;25.80;9.20;;;;;;;20.96;31.56;102488.23;106206;1282;59172;-85
2024/01/10 09:59:18;;;;;;;35.50;9.80;;;;;;;20.86;31.45;102484.18;105979;1282;59907;-81
2024/01/10 10:01:44;;;;;;;28.50;9.80;;;;;;;20.77;31.56;102483.86;105953;1282;60430;-79
2024/01/10 10:04:11;;;;;;;19.90;7.90;;;;;;;20.74;31.60;102479.51;106114;1282;60009;-80
2024/01/10 10:06:37;;;;;;;20.20;8.00;;;;;;;20.70;31.39;102473.96;106229;1282;59995;-80
2024/01/10 10:09:03;;;;;;;18.60;9.00;;;;;;;20.64;31.11;102471.69;106412;1282;60182;-80
2024/01/10 10:11:29;;;;;;;17.70;8.30;;;;;;;20.57;30.70;102467.33;106399;1279;59808;-80
2024/01/10 10:13:55;;;;;;;21.40;8.10;;;;;;;20.50;30.48;102466.38;106180;1283;60060;-79
2024/01/10 10:16:27;;;;;;;20.70;7.90;;;;;;;20.43;30.28;102463.28;105611;1284;61259;-80
2024/01/10 10:18:57;;;;;;;21.20;8.50;;;;;;;20.38;30.24;102460.45;105845;1282;61055;-79
2024/01/10 10:21:24;;;;;;;15.80;7.40;;;;;;;20.35;30.09;102458.06;106357;1286;61182;-78
2024/01/10 10:23:58;;;;;;;20.20;8.70;;;;;;;20.36;29.85;102457.34;105636;1282;71550;-77
2024/01/10 10:26:23;;;;;;;20.50;7.60;;;;;;;20.36;29.78;102450.72;106122;1283;74589;-77
2024/01/10 10:28:52;;;;;;;19.50;7.80;;;;;;;20.35;29.62;102447.49;106000;1282;60898;-79
2024/01/10 10:31:19;;;;;;;18.90;7.90;;;;;;;20.36;29.36;102442.11;106330;1283;60294;-77
2024/01/10 10:33:45;;;;;;;14.90;7.70;;;;;;;20.39;29.28;102439.69;106289;1280;60192;-79
2024/01/10 10:36:11;;;;;;;12.90;7.30;;;;;;;20.41;29.04;102439.75;105996;1288;61344;-78
2024/01/10 10:38:39;;;;;;;15.80;6.90;;;;;;;20.44;29.03;102434.80;106091;1282;61369;-79
2024/01/10 10:41:07;;;;;;;13.60;7.70;;;;;;;20.46;28.82;102429.17;106020;1283;59774;-79
2024/01/10 10:43:35;;;;;;;20.30;7.00;;;;;;;20.47;28.93;102422.14;105924;1290;73440;-80
2024/01/10 10:46:01;;;;;;;15.80;6.90;;;;;;;20.48;28.87;102423.90;106019;1282;74090;-79
2024/01/10 10:48:27;;;;;;;15.50;7.10;;;;;;;20.47;28.69;102415.54;106037;1285;60514;-78
2024/01/10 10:50:52;;;;;;;19.20;7.00;;;;;;;20.46;28.53;102409.13;105819;1282;60360;-80
2024/01/10 10:53:18;;;;;;;13.20;6.50;;;;;;;20.47;28.60;102407.86;106099;1285;61368;-79
2024/01/10 10:55:44;;;;;;;19.40;6.30;;;;;;;20.46;28.29;102400.39;105857;1285;59888;-79
2024/01/10 10:58:09;;;;;;;13.50;6.50;;;;;;;20.45;28.30;102395.44;105532;1287;61187;-79
2024/01/10 11:00:35;;;;;;;22.80;7.20;;;;;;;20.46;28.13;102389.67;105581;1285;61157;-80
2024/01/10 11:03:02;;;;;;;16.90;7.00;;;;;;;20.42;27.78;102391.05;105869;1283;60201;-79
2024/01/10 11:05:27;;;;;;;24.60;7.00;;;;;;;20.32;27.85;102384.54;105745;1288;59864;-80
2024/01/10 11:07:53;;;;;;;29.70;7.80;;;;;;;20.26;27.96;102386.40;105753;1283;59894;-80